Time;durP1;ratioP1;P1;durP2;ratioP2;P2;SDS_P1;SDS_P2;PMS_P1;PMS_P2;Temp;Humidity;BMP_temperature;BMP_pressure;BME280_temperature;BME280_humidity;BME280_pressure;Samples;Min_cycle;Max_cycle;Signal;HPM_P1;HPM_P2
2021/05/11 00:00:09;;;;;;;2.60;2.38;;;;;;;21.03;49.16;100326.59;689631;28;22404;-66
2021/05/11 00:00:30;;;;;;;3.08;2.20;;;;;;;21.02;49.23;100330.41;688046;28;69425;-65
2021/05/11 00:00:51;;;;;;;2.22;2.03;;;;;;;21.02;48.94;100330.41;689568;28;23581;-65
2021/05/11 00:01:12;;;;;;;3.13;2.20;;;;;;;21.03;48.96;100332.09;688938;28;46475;-66
2021/05/11 00:01:33;;;;;;;3.20;2.30;;;;;;;21.01;48.96;100326.00;689060;28;42736;-64
2021/05/11 00:01:55;;;;;;;2.10;2.00;;;;;;;21.03;49.01;100320.25;689536;28;16771;-65
2021/05/11 00:02:16;;;;;;;2.35;2.17;;;;;;;21.01;49.13;100320.50;689080;28;17235;-65
2021/05/11 00:02:37;;;;;;;2.30;2.10;;;;;;;21.01;49.06;100330.66;688820;28;22417;-65
2021/05/11 00:02:58;;;;;;;2.20;2.10;;;;;;;21.00;49.11;100326.25;688498;28;23653;-65
2021/05/11 00:03:20;;;;;;;2.20;2.00;;;;;;;21.02;49.13;100335.09;687494;28;39753;-63
2021/05/11 00:03:41;;;;;;;2.35;2.17;;;;;;;21.02;48.97;100322.19;688402;28;23462;-62
2021/05/11 00:04:03;;;;;;;3.20;2.20;;;;;;;21.03;48.98;100331.22;687676;28;47237;-64
2021/05/11 00:04:24;;;;;;;2.22;2.03;;;;;;;21.02;49.05;100330.41;688768;28;22464;-65
2021/05/11 00:04:45;;;;;;;2.20;2.10;;;;;;;21.03;49.03;100331.22;688713;28;23490;-64
2021/05/11 00:05:07;;;;;;;2.00;1.90;;;;;;;21.04;49.12;100325.47;688237;28;22258;-65
2021/05/11 00:05:30;;;;;;;2.08;1.90;;;;;;;21.05;48.86;100329.91;687349;28;46296;-63
2021/05/11 00:05:51;;;;;;;2.40;2.03;;;;;;;21.05;48.94;100318.91;686756;28;70177;-64
2021/05/11 00:06:12;;;;;;;2.25;2.15;;;;;;;21.06;48.98;100320.59;689540;28;861;-65
2021/05/11 00:06:33;;;;;;;2.05;1.90;;;;;;;21.05;48.78;100321.66;688309;28;19915;-65
2021/05/11 00:06:54;;;;;;;2.42;2.10;;;;;;;21.05;48.82;100318.91;688997;28;17067;-64
2021/05/11 00:07:15;;;;;;;2.80;2.00;;;;;;;21.06;49.03;100319.75;688407;28;23414;-65
2021/05/11 00:07:37;;;;;;;2.53;1.92;;;;;;;21.07;48.93;100318.66;688703;28;23527;-64
2021/05/11 00:07:59;;;;;;;2.50;2.22;;;;;;;21.07;48.73;100315.91;687599;28;44363;-65
2021/05/11 00:08:20;;;;;;;2.42;2.00;;;;;;;21.07;48.81;100315.91;687368;28;44397;-65
2021/05/11 00:08:41;;;;;;;2.17;2.08;;;;;;;21.06;48.72;100317.84;688604;28;23477;-65
2021/05/11 00:09:03;;;;;;;2.13;2.03;;;;;;;21.05;48.74;100321.66;688651;28;21563;-65
2021/05/11 00:09:24;;;;;;;2.60;2.08;;;;;;;21.05;48.50;100318.91;687371;28;46376;-65
2021/05/11 00:09:46;;;;;;;3.38;2.25;;;;;;;21.05;48.69;100315.34;689015;28;23409;-64
2021/05/11 00:10:08;;;;;;;2.20;2.10;;;;;;;21.05;48.67;100323.59;690195;28;44284;-64
2021/05/11 00:10:29;;;;;;;2.35;2.00;;;;;;;21.05;48.65;100321.66;689995;28;46439;-64
2021/05/11 00:10:50;;;;;;;2.30;2.03;;;;;;;21.05;48.38;100320.84;691161;28;23494;-64
2021/05/11 00:11:11;;;;;;;3.90;2.00;;;;;;;21.05;48.47;100326.34;691428;28;9746;-64
2021/05/11 00:11:34;;;;;;;4.30;1.98;;;;;;;21.03;48.45;100323.84;690636;28;22539;-64
2021/05/11 00:11:55;;;;;;;1.90;1.80;;;;;;;21.02;48.35;100319.44;689253;28;44411;-65
2021/05/11 00:12:16;;;;;;;2.10;1.90;;;;;;;21.02;48.56;100315.88;688589;28;22389;-66
2021/05/11 00:12:38;;;;;;;2.00;1.90;;;;;;;21.01;48.53;100317.75;688718;28;21533;-64
2021/05/11 00:12:59;;;;;;;2.60;2.10;;;;;;;21.00;48.61;100316.13;687620;28;45258;-65
2021/05/11 00:13:20;;;;;;;3.42;2.25;;;;;;;21.00;48.55;100318.00;687880;28;21649;-65
2021/05/11 00:13:41;;;;;;;2.88;2.17;;;;;;;20.99;48.69;100319.94;688456;28;20940;-65
2021/05/11 00:14:05;;;;;;;1.98;1.88;;;;;;;20.98;48.48;100315.53;688690;28;13070;-66
2021/05/11 00:14:26;;;;;;;2.50;2.10;;;;;;;20.97;48.57;100311.13;685823;28;92333;-65
2021/05/11 00:14:47;;;;;;;2.20;2.00;;;;;;;20.98;48.62;100311.97;688240;28;20801;-64
2021/05/11 00:15:09;;;;;;;2.40;1.98;;;;;;;20.97;48.50;100315.78;688316;28;23470;-65
2021/05/11 00:15:30;;;;;;;3.67;1.90;;;;;;;20.96;48.58;100312.22;687540;28;45171;-66
2021/05/11 00:15:52;;;;;;;3.47;2.20;;;;;;;20.95;48.53;100318.78;687996;28;46401;-65
2021/05/11 00:16:13;;;;;;;2.35;2.13;;;;;;;20.94;48.64;100311.66;687695;28;1525;-64
2021/05/11 00:16:34;;;;;;;2.42;1.90;;;;;;;20.94;48.58;100319.88;687714;28;2101;-63
2021/05/11 00:16:55;;;;;;;2.40;2.10;;;;;;;20.92;48.69;100316.56;686844;28;23424;-62
2021/05/11 00:17:16;;;;;;;1.90;1.80;;;;;;;20.92;48.88;100313.81;687066;28;19670;-66
2021/05/11 00:17:39;;;;;;;2.13;1.92;;;;;;;20.90;48.91;100309.69;686690;28;22418;-63
2021/05/11 00:18:01;;;;;;;2.20;2.10;;;;;;;20.91;48.86;100314.91;686173;28;64691;-64
2021/05/11 00:18:22;;;;;;;2.50;2.30;;;;;;;20.90;48.62;100312.44;688266;28;20816;-65
2021/05/11 00:18:43;;;;;;;2.25;2.15;;;;;;;20.88;48.73;100319.00;688873;28;23415;-64
2021/05/11 00:19:06;;;;;;;1.77;1.73;;;;;;;20.87;48.79;100317.31;688673;28;22287;-65
2021/05/11 00:19:28;;;;;;;2.20;2.10;;;;;;;20.87;48.72;100320.06;686161;28;67300;-64
2021/05/11 00:19:49;;;;;;;2.15;1.95;;;;;;;20.86;48.76;100320.31;686641;28;70288;-63
2021/05/11 00:20:11;;;;;;;2.30;2.00;;;;;;;20.86;48.84;100323.06;687904;28;46546;-64
2021/05/11 00:20:32;;;;;;;2.10;2.00;;;;;;;20.83;48.82;100313.44;686787;28;69501;-65
2021/05/11 00:20:54;;;;;;;2.00;1.90;;;;;;;20.85;48.77;100318.69;689378;28;21723;-64
2021/05/11 00:21:15;;;;;;;2.10;1.90;;;;;;;20.85;48.82;100319.50;687809;28;45621;-64
2021/05/11 00:21:36;;;;;;;2.20;2.00;;;;;;;20.85;48.77;100315.94;688150;28;22395;-66
2021/05/11 00:21:57;;;;;;;2.13;2.03;;;;;;;20.85;48.66;100318.69;688370;28;22400;-63
2021/05/11 00:22:18;;;;;;;2.00;1.90;;;;;;;20.83;48.88;100318.94;689072;28;13511;-65
2021/05/11 00:22:41;;;;;;;2.15;2.00;;;;;;;20.84;48.75;100308.78;688728;28;22397;-64
2021/05/11 00:23:02;;;;;;;2.60;2.10;;;;;;;20.83;48.66;100307.09;687406;28;46336;-62
2021/05/11 00:23:23;;;;;;;2.10;2.00;;;;;;;20.84;48.87;100317.00;686915;28;46314;-64
2021/05/11 00:23:44;;;;;;;2.47;2.00;;;;;;;20.83;48.91;100315.34;688242;28;20827;-64
2021/05/11 00:24:06;;;;;;;2.15;1.95;;;;;;;20.82;48.62;100317.25;688402;28;22412;-65
2021/05/11 00:24:28;;;;;;;1.95;1.80;;;;;;;20.80;48.90;100321.34;688374;28;22424;-65
2021/05/11 00:24:49;;;;;;;2.30;2.10;;;;;;;20.81;48.86;100312.84;687578;28;44371;-65
2021/05/11 00:25:10;;;;;;;2.00;1.90;;;;;;;20.80;49.04;100324.94;688799;28;22478;-64
2021/05/11 00:25:32;;;;;;;2.55;1.98;;;;;;;20.80;48.82;100319.44;687684;28;44386;-64
2021/05/11 00:25:53;;;;;;;2.67;2.03;;;;;;;20.80;49.12;100315.84;688481;28;20872;-65
2021/05/11 00:26:14;;;;;;;2.25;2.05;;;;;;;20.81;48.90;100317.53;688173;28;22506;-64
2021/05/11 00:26:38;;;;;;;2.20;1.90;;;;;;;20.82;48.94;100313.69;688315;28;17397;-64
2021/05/11 00:26:59;;;;;;;2.25;2.05;;;;;;;20.82;48.96;100320.00;686174;28;84777;-63
2021/05/11 00:27:20;;;;;;;3.50;2.20;;;;;;;20.82;48.72;100316.44;688782;28;11240;-64
2021/05/11 00:27:42;;;;;;;2.78;1.83;;;;;;;20.81;49.18;100318.34;688180;28;20896;-64
2021/05/11 00:28:03;;;;;;;2.20;1.90;;;;;;;20.83;48.78;100313.44;687444;28;46297;-65
2021/05/11 00:28:24;;;;;;;2.40;2.10;;;;;;;20.84;48.94;100314.25;687675;28;36928;-64
2021/05/11 00:28:46;;;;;;;2.58;2.30;;;;;;;20.83;48.86;100310.69;688679;28;23474;-64
2021/05/11 00:29:07;;;;;;;2.22;2.03;;;;;;;20.82;48.92;100314.53;688692;28;24372;-65
2021/05/11 00:29:28;;;;;;;2.45;2.17;;;;;;;20.83;48.80;100310.69;687091;28;44382;-65
2021/05/11 00:29:51;;;;;;;3.17;2.22;;;;;;;20.83;49.04;100318.09;688287;28;22480;-64
2021/05/11 00:30:13;;;;;;;2.28;2.08;;;;;;;20.84;49.18;100306.84;686947;28;65745;-66
2021/05/11 00:30:35;;;;;;;2.70;2.10;;;;;;;20.83;48.74;100310.69;688059;28;46238;-65
2021/05/11 00:30:56;;;;;;;2.20;2.10;;;;;;;20.82;48.86;100311.78;689149;28;15229;-63
2021/05/11 00:31:18;;;;;;;2.10;2.00;;;;;;;20.81;48.92;100307.34;688875;28;866;-65
2021/05/11 00:31:39;;;;;;;2.10;1.90;;;;;;;20.81;48.81;100312.84;688484;28;1641;-66
2021/05/11 00:32:01;;;;;;;2.00;1.90;;;;;;;20.80;48.72;100302.13;688746;28;4262;-66
2021/05/11 00:32:27;;;;;;;2.17;1.98;;;;;;;20.81;48.68;100312.03;686949;28;62411;-66
2021/05/11 00:32:49;;;;;;;2.03;1.92;;;;;;;20.78;48.98;100310.63;688694;28;17861;-65
2021/05/11 00:33:10;;;;;;;3.10;1.90;;;;;;;20.79;48.87;100314.22;686957;28;46180;-64
2021/05/11 00:33:31;;;;;;;2.63;2.00;;;;;;;20.77;48.98;100311.72;688691;28;2659;-65
2021/05/11 00:33:54;;;;;;;2.00;1.90;;;;;;;20.78;49.04;100307.88;687600;28;45280;-66
2021/05/11 00:34:15;;;;;;;1.90;1.80;;;;;;;20.79;48.63;100306.78;687694;28;28302;-65
2021/05/11 00:34:36;;;;;;;2.45;1.90;;;;;;;20.79;48.82;100304.06;688763;28;24297;-65
2021/05/11 00:34:57;;;;;;;2.05;1.90;;;;;;;20.79;48.97;100305.97;688350;28;23603;-65
2021/05/11 00:35:18;;;;;;;3.47;2.00;;;;;;;20.78;49.14;100309.78;687861;28;45270;-65
2021/05/11 00:35:40;;;;;;;2.10;1.80;;;;;;;20.78;48.97;100304.31;691222;28;22343;-65
2021/05/11 00:36:01;;;;;;;2.10;1.90;;;;;;;20.78;48.87;100309.78;689570;28;21543;-66
2021/05/11 00:36:22;;;;;;;2.20;1.90;;;;;;;20.77;48.90;100303.50;688431;28;23536;-65
2021/05/11 00:36:43;;;;;;;2.17;1.90;;;;;;;20.77;48.81;100303.50;688360;28;18346;-65
2021/05/11 00:37:04;;;;;;;2.15;1.90;;;;;;;20.78;49.10;100307.88;685080;28;10242;-65
2021/05/11 00:37:26;;;;;;;2.85;2.03;;;;;;;20.79;49.24;100303.22;685062;28;896;-65
2021/05/11 00:37:48;;;;;;;3.50;2.08;;;;;;;20.79;48.90;100301.31;684741;28;23506;-66
2021/05/11 00:38:09;;;;;;;2.20;1.73;;;;;;;20.80;48.88;100300.22;685712;28;22371;-67
2021/05/11 00:38:30;;;;;;;2.35;2.00;;;;;;;20.80;48.86;100302.97;687844;28;23554;-65
2021/05/11 00:38:51;;;;;;;2.25;2.05;;;;;;;20.81;48.96;100298.31;687600;28;41927;-65
2021/05/11 00:39:12;;;;;;;2.03;1.90;;;;;;;20.82;48.77;100302.72;688360;28;23421;-65
2021/05/11 00:39:34;;;;;;;2.33;2.08;;;;;;;20.83;48.77;100301.63;688647;28;6206;-65
2021/05/11 00:39:55;;;;;;;2.13;1.92;;;;;;;20.83;48.74;100304.34;687557;28;42509;-66
2021/05/11 00:40:16;;;;;;;2.25;1.90;;;;;;;20.84;48.79;100303.28;689521;28;6027;-65
2021/05/11 00:40:37;;;;;;;3.58;1.95;;;;;;;20.83;48.76;100302.47;688697;28;21529;-65
2021/05/11 00:40:58;;;;;;;1.80;1.70;;;;;;;20.84;48.83;100301.38;688451;28;22400;-65
2021/05/11 00:41:20;;;;;;;1.83;1.73;;;;;;;20.84;48.75;100300.53;688693;28;22504;-65
2021/05/11 00:41:41;;;;;;;2.17;2.08;;;;;;;20.84;48.79;100309.59;688574;28;3053;-64
2021/05/11 00:42:03;;;;;;;2.22;2.10;;;;;;;20.83;48.76;100296.97;688068;28;11289;-65
2021/05/11 00:42:24;;;;;;;3.50;1.92;;;;;;;20.82;48.91;100298.06;687999;28;21590;-65
2021/05/11 00:42:45;;;;;;;2.00;1.80;;;;;;;20.80;49.00;100294.75;688025;28;23383;-66
2021/05/11 00:43:06;;;;;;;2.33;1.90;;;;;;;20.78;48.96;100299.63;687948;28;46377;-66
2021/05/11 00:43:27;;;;;;;2.35;2.10;;;;;;;20.77;48.97;100306.22;688134;28;23412;-65
2021/05/11 00:43:49;;;;;;;3.22;1.98;;;;;;;20.77;48.96;100303.50;688703;28;23463;-65
2021/05/11 00:44:20;;;;;;;2.80;2.05;;;;;;;20.73;48.83;100296.03;688730;28;23670;-65
2021/05/11 00:44:41;;;;;;;2.00;1.90;;;;;;;20.72;49.11;100297.09;684580;28;136372;-65
2021/05/11 00:45:03;;;;;;;2.08;1.98;;;;;;;20.70;49.08;100294.59;688271;28;23424;-65
2021/05/11 00:45:24;;;;;;;2.03;1.92;;;;;;;20.69;49.01;100298.44;686810;28;69423;-64
2021/05/11 00:45:46;;;;;;;2.00;1.90;;;;;;;20.66;49.25;100290.72;688918;28;19081;-65
2021/05/11 00:46:08;;;;;;;2.10;1.92;;;;;;;20.66;49.34;100299.78;689604;28;902;-65
2021/05/11 00:46:30;;;;;;;2.17;1.98;;;;;;;20.65;49.01;100302.78;688305;28;21668;-66
2021/05/11 00:46:57;;;;;;;2.00;1.90;;;;;;;20.65;49.32;100297.28;687430;28;46951;-65
2021/05/11 00:47:18;;;;;;;2.40;1.90;;;;;;;20.62;49.36;100300.50;684225;28;138132;-65
2021/05/11 00:47:40;;;;;;;2.45;2.20;;;;;;;20.62;49.20;100298.59;688326;28;22395;-66
2021/05/11 00:48:01;;;;;;;2.10;2.00;;;;;;;20.60;49.22;100305.44;687932;28;46590;-66
2021/05/11 00:48:25;;;;;;;2.05;1.85;;;;;;;20.58;49.27;100297.47;688091;28;22451;-65
2021/05/11 00:48:46;;;;;;;2.10;1.90;;;;;;;20.58;49.25;100302.94;686062;28;92291;-66
2021/05/11 00:49:07;;;;;;;2.05;1.85;;;;;;;20.58;49.53;100304.84;688748;28;22419;-65
2021/05/11 00:49:29;;;;;;;2.38;2.03;;;;;;;20.57;49.62;100304.03;687928;28;22392;-66
2021/05/11 00:49:50;;;;;;;2.17;2.00;;;;;;;20.57;49.82;100301.28;687379;28;45253;-65
2021/05/11 00:50:13;;;;;;;2.35;2.13;;;;;;;20.58;49.55;100299.34;691462;28;23481;-65
2021/05/11 00:50:34;;;;;;;3.88;2.08;;;;;;;20.57;49.59;100297.72;691053;28;19282;-65
2021/05/11 00:50:55;;;;;;;3.60;2.00;;;;;;;20.58;49.33;100296.59;691868;28;1358;-66
2021/05/11 00:51:16;;;;;;;2.20;1.98;;;;;;;20.58;49.51;100296.59;691399;28;13349;-65
2021/05/11 00:51:38;;;;;;;2.10;2.00;;;;;;;20.59;49.49;100301.03;690457;28;23473;-65
2021/05/11 00:52:00;;;;;;;2.10;2.00;;;;;;;20.58;49.50;100296.59;690320;28;22478;-65
2021/05/11 00:52:22;;;;;;;3.10;1.92;;;;;;;20.57;49.56;100287.56;686795;28;69383;-66
2021/05/11 00:52:43;;;;;;;6.00;2.10;;;;;;;20.57;49.29;100300.47;690302;28;46090;-65
2021/05/11 00:53:05;;;;;;;3.42;2.10;;;;;;;20.57;49.51;100295.78;690695;28;24505;-64
2021/05/11 00:53:26;;;;;;;2.30;2.08;;;;;;;20.56;49.35;100304.28;689622;28;46417;-66
2021/05/11 00:53:48;;;;;;;2.72;2.20;;;;;;;20.55;49.33;100300.72;690974;28;21565;-65
2021/05/11 00:54:09;;;;;;;2.10;2.00;;;;;;;20.56;49.51;100298.78;690791;28;22423;-65
2021/05/11 00:54:30;;;;;;;2.10;1.85;;;;;;;20.56;49.66;100304.28;690362;28;13238;-64
2021/05/11 00:54:52;;;;;;;2.00;1.80;;;;;;;20.56;49.65;100305.09;687574;28;34481;-65
2021/05/11 00:55:13;;;;;;;2.15;1.70;;;;;;;20.57;49.58;100301.28;687267;28;23601;-65
2021/05/11 00:55:34;;;;;;;1.95;1.80;;;;;;;20.58;49.42;100302.09;687413;28;46329;-65
2021/05/11 00:55:56;;;;;;;2.30;2.10;;;;;;;20.58;49.67;100299.34;685703;28;21549;-66
2021/05/11 00:56:20;;;;;;;3.03;2.03;;;;;;;20.58;49.53;100294.72;685669;28;23656;-65
2021/05/11 00:56:42;;;;;;;2.05;1.95;;;;;;;20.59;49.52;100299.09;682799;28;116887;-64
2021/05/11 00:57:04;;;;;;;2.40;2.15;;;;;;;20.61;49.57;100301.59;687391;28;41467;-64
2021/05/11 00:57:29;;;;;;;2.50;2.20;;;;;;;20.60;49.70;100295.28;688792;28;906;-66
2021/05/11 00:57:50;;;;;;;3.22;1.95;;;;;;;20.61;49.48;100299.69;686156;28;92337;-65
2021/05/11 00:58:12;;;;;;;2.28;1.92;;;;;;;20.60;49.59;100295.28;689234;28;3179;-65
2021/05/11 00:58:34;;;;;;;2.20;2.10;;;;;;;20.60;49.51;100294.47;686969;28;46217;-64
2021/05/11 00:58:55;;;;;;;2.33;1.98;;;;;;;20.60;49.21;100289.78;687602;28;46361;-65
2021/05/11 00:59:18;;;;;;;2.00;1.90;;;;;;;20.60;49.51;100289.78;688514;28;21522;-65
2021/05/11 00:59:40;;;;;;;2.15;2.05;;;;;;;20.60;49.53;100286.22;686931;28;69288;-66
2021/05/11 01:00:04;;;;;;;2.10;2.00;;;;;;;20.58;49.41;100286.47;687316;28;46372;-65
2021/05/11 01:00:25;;;;;;;3.42;2.00;;;;;;;20.58;49.56;100291.97;685811;28;90524;-65
2021/05/11 01:00:46;;;;;;;3.33;2.00;;;;;;;20.58;49.50;100291.13;688477;28;22302;-65
2021/05/11 01:01:10;;;;;;;2.38;2.17;;;;;;;20.59;49.68;100290.06;688425;28;14953;-65
2021/05/11 01:01:31;;;;;;;2.35;2.03;;;;;;;20.58;49.64;100294.72;688311;28;22836;-64
2021/05/11 01:01:53;;;;;;;3.15;1.90;;;;;;;20.58;49.51;100282.91;687589;28;22385;-65
2021/05/11 01:02:14;;;;;;;2.53;1.93;;;;;;;20.58;49.36;100288.38;687927;28;39414;-65
2021/05/11 01:02:35;;;;;;;2.28;2.08;;;;;;;20.58;49.50;100291.13;688143;28;45390;-65
2021/05/11 01:02:57;;;;;;;2.20;2.10;;;;;;;20.56;49.39;100290.56;688863;28;23384;-65
2021/05/11 01:03:18;;;;;;;2.40;2.20;;;;;;;20.57;49.55;100289.47;687518;28;36942;-65
2021/05/11 01:03:41;;;;;;;2.28;2.13;;;;;;;20.57;49.33;100292.22;689532;28;854;-65
2021/05/11 01:04:03;;;;;;;2.08;1.90;;;;;;;20.55;49.35;100284.25;688526;28;21534;-65
2021/05/11 01:04:25;;;;;;;2.47;1.95;;;;;;;20.56;49.41;100283.16;687674;28;46424;-65
2021/05/11 01:04:47;;;;;;;2.20;1.90;;;;;;;20.55;49.43;100281.50;688947;28;43112;-65
2021/05/11 01:05:09;;;;;;;2.58;1.95;;;;;;;20.54;49.50;100285.31;689661;28;21305;-66
2021/05/11 01:05:30;;;;;;;2.05;1.90;;;;;;;20.54;49.56;100279.84;687947;28;46777;-65
2021/05/11 01:05:51;;;;;;;2.00;1.90;;;;;;;20.53;49.70;100281.75;688567;28;46398;-65
2021/05/11 01:06:13;;;;;;;2.20;2.00;;;;;;;20.52;49.56;100282.84;690256;28;900;-64
2021/05/11 01:06:35;;;;;;;2.40;1.90;;;;;;;20.52;49.54;100276.53;688784;28;45246;-65
2021/05/11 01:06:56;;;;;;;2.35;1.98;;;;;;;20.53;49.45;100279.03;689109;28;17327;-65
2021/05/11 01:07:17;;;;;;;2.17;2.00;;;;;;;20.53;49.47;100280.91;688535;28;22378;-65
2021/05/11 01:07:38;;;;;;;2.90;2.00;;;;;;;20.53;49.18;100273.53;688449;28;23334;-64
2021/05/11 01:07:59;;;;;;;2.30;2.20;;;;;;;20.52;49.62;100271.88;688878;28;23302;-63
2021/05/11 01:08:22;;;;;;;2.22;2.13;;;;;;;20.51;49.78;100277.59;687931;28;23409;-64
2021/05/11 01:08:43;;;;;;;2.75;2.00;;;;;;;20.49;49.68;100275.13;686730;28;69349;-64
2021/05/11 01:09:04;;;;;;;3.85;2.10;;;;;;;20.47;49.58;100274.53;688442;28;23612;-64
2021/05/11 01:09:26;;;;;;;2.00;1.90;;;;;;;20.48;49.83;100280.84;687709;28;22250;-67
2021/05/11 01:09:47;;;;;;;2.20;2.00;;;;;;;20.47;49.52;100273.69;687415;28;44403;-64
2021/05/11 01:10:09;;;;;;;2.20;2.00;;;;;;;20.45;49.76;100279.44;688362;28;23421;-65
2021/05/11 01:10:30;;;;;;;2.00;1.90;;;;;;;20.44;49.88;100271.47;687356;28;45301;-65
2021/05/11 01:10:51;;;;;;;2.65;2.08;;;;;;;20.44;49.90;100275.06;688263;28;23465;-65
2021/05/11 01:11:13;;;;;;;2.28;2.05;;;;;;;20.43;49.77;100272.56;688206;28;23435;-65
2021/05/11 01:11:35;;;;;;;2.38;2.05;;;;;;;20.43;49.94;100272.56;687338;28;46251;-66
2021/05/11 01:11:57;;;;;;;2.42;2.22;;;;;;;20.41;49.97;100270.06;686631;28;45364;-65
2021/05/11 01:12:18;;;;;;;2.17;2.08;;;;;;;20.41;50.03;100274.75;690558;28;46425;-65
2021/05/11 01:12:39;;;;;;;2.15;2.00;;;;;;;20.39;50.04;100266.75;691023;28;14543;-64
2021/05/11 01:13:03;;;;;;;2.30;2.10;;;;;;;20.39;49.84;100266.75;691818;28;946;-65
2021/05/11 01:13:25;;;;;;;2.15;2.05;;;;;;;20.38;50.18;100267.84;690900;28;1791;-65
2021/05/11 01:13:46;;;;;;;2.10;2.00;;;;;;;20.38;50.08;100275.25;691402;28;1077;-66
2021/05/11 01:14:09;;;;;;;2.03;1.92;;;;;;;20.39;50.18;100266.75;690891;28;846;-65
2021/05/11 01:14:32;;;;;;;2.10;2.00;;;;;;;20.40;49.94;100267.59;688474;28;15251;-65
2021/05/11 01:14:53;;;;;;;1.80;1.70;;;;;;;20.39;50.04;100268.66;688487;28;22429;-65
2021/05/11 01:15:15;;;;;;;1.92;1.83;;;;;;;20.39;50.13;100264.03;688548;28;5451;-65
2021/05/11 01:15:41;;;;;;;2.10;2.00;;;;;;;20.40;49.99;100265.66;686013;28;90831;-65
2021/05/11 01:16:02;;;;;;;2.20;2.00;;;;;;;20.41;50.18;100272.00;685961;28;89705;-66
2021/05/11 01:16:25;;;;;;;2.60;2.10;;;;;;;20.40;49.90;100265.66;684927;28;37067;-65
2021/05/11 01:16:50;;;;;;;2.47;2.00;;;;;;;20.37;50.08;100262.59;684931;28;69394;-66
2021/05/11 01:17:17;;;;;;;1.85;1.75;;;;;;;20.40;49.88;100268.41;685884;28;93057;-65
2021/05/11 01:17:38;;;;;;;2.30;2.10;;;;;;;20.40;49.98;100264.84;684266;28;138250;-65
2021/05/11 01:18:02;;;;;;;2.00;1.80;;;;;;;20.39;49.94;100263.19;687976;28;35994;-65
2021/05/11 01:18:29;;;;;;;2.08;1.88;;;;;;;20.40;49.66;100264.84;686203;28;69423;-66
2021/05/11 01:18:50;;;;;;;2.70;1.95;;;;;;;20.39;50.15;100261.28;685051;28;136267;-66
2021/05/11 01:19:15;;;;;;;2.00;1.85;;;;;;;20.39;49.94;100260.44;687805;28;44400;-65
2021/05/11 01:19:42;;;;;;;2.00;1.90;;;;;;;20.37;50.13;100268.91;686834;28;93070;-65
2021/05/11 01:20:07;;;;;;;2.35;2.03;;;;;;;20.38;49.97;100264.28;685222;28;136325;-64
2021/05/11 01:20:33;;;;;;;3.00;1.80;;;;;;;20.38;50.27;100262.34;689034;28;31086;-65
2021/05/11 01:20:57;;;;;;;2.15;2.00;;;;;;;20.40;49.86;100264.84;686477;28;117624;-64
2021/05/11 01:21:28;;;;;;;2.00;1.90;;;;;;;20.37;49.96;100259.88;686808;28;93197;-65
2021/05/11 01:21:54;;;;;;;2.40;2.00;;;;;;;20.35;50.16;100260.13;686532;28;137840;-65
2021/05/11 01:22:31;;;;;;;2.28;2.08;;;;;;;20.33;50.05;100259.56;685629;28;157863;-64
2021/05/11 01:23:09;;;;;;;2.08;1.98;;;;;;;20.31;50.24;100261.69;686952;28;137685;-64
2021/05/11 01:23:53;;;;;;;3.42;1.90;;;;;;;20.30;50.07;100257.31;686279;28;135978;-64
2021/05/11 01:24:18;;;;;;;2.70;1.83;;;;;;;20.27;50.26;100264.13;683489;28;159809;-64
2021/05/11 01:24:41;;;;;;;2.88;1.90;;;;;;;20.27;50.40;100260.56;685338;28;115152;-65
2021/05/11 01:25:05;;;;;;;2.20;2.00;;;;;;;20.27;50.50;100263.31;686612;28;70346;-64
2021/05/11 01:25:29;;;;;;;2.92;2.00;;;;;;;20.26;50.41;100253.41;686136;28;92305;-64
2021/05/11 01:25:54;;;;;;;2.30;2.00;;;;;;;20.25;50.34;100262.72;687131;28;93374;-64
2021/05/11 01:26:23;;;;;;;2.30;2.20;;;;;;;20.24;50.50;100252.84;686523;28;99368;-65
2021/05/11 01:26:48;;;;;;;2.38;2.13;;;;;;;20.22;50.67;100249.50;685555;28;139014;-65
2021/05/11 01:27:15;;;;;;;2.10;2.00;;;;;;;20.21;50.67;100253.34;685522;28;138281;-65
2021/05/11 01:28:18;;;;;;;2.63;2.47;;;;;;;20.19;50.44;100248.13;683002;28;134039;-64
2021/05/11 01:28:49;;;;;;;2.67;2.47;;;;;;;20.20;50.53;100251.69;683600;28;159607;-64
2021/05/11 01:29:21;;;;;;;2.10;2.00;;;;;;;20.19;50.25;100248.13;683324;28;160731;-64
2021/05/11 01:29:46;;;;;;;2.30;2.10;;;;;;;20.18;50.46;100249.19;683350;28;156351;-64
2021/05/11 01:30:25;;;;;;;2.20;2.10;;;;;;;20.20;50.76;100251.69;685436;28;110529;-64
2021/05/11 01:31:54;;;;;;;2.00;1.90;;;;;;;20.18;50.88;100243.72;683894;28;158910;-64
2021/05/11 01:33:13;;;;;;;2.40;2.30;;;;;;;20.16;51.04;100243.13;683604;28;159090;-65
2021/05/11 01:44:00;;;;;;;3.22;2.20;;;;;;;19.99;51.24;100216.56;684518;28;138443;-64
2021/05/11 01:47:01;;;;;;;2.22;2.00;;;;;;;19.92;51.55;100228.81;677072;28;137154;-63
2021/05/11 01:47:33;;;;;;;2.22;2.13;;;;;;;19.88;51.49;100222.19;684249;28;137867;-64
2021/05/11 01:48:01;;;;;;;2.30;2.10;;;;;;;19.88;51.77;100230.41;684300;28;137694;-64
2021/05/11 01:48:32;;;;;;;2.10;2.00;;;;;;;19.87;52.11;100226.00;684049;28;137953;-64
2021/05/11 01:49:00;;;;;;;2.95;2.20;;;;;;;19.86;51.88;100233.41;683857;28;160603;-64
2021/05/11 01:49:33;;;;;;;2.58;2.25;;;;;;;19.85;51.86;100233.66;683880;28;136318;-64
2021/05/11 01:50:10;;;;;;;2.83;2.28;;;;;;;19.84;51.82;100237.47;684636;28;133526;-64
2021/05/11 01:50:35;;;;;;;2.55;2.25;;;;;;;19.83;51.84;100227.56;685287;28;102723;-64
2021/05/11 01:51:10;;;;;;;2.35;2.15;;;;;;;19.81;51.85;100233.28;685413;28;112230;-64
2021/05/11 01:51:48;;;;;;;3.50;2.30;;;;;;;19.80;51.94;100235.22;683612;28;159020;-64
2021/05/11 01:52:23;;;;;;;2.38;2.28;;;;;;;19.79;52.15;100233.53;683318;28;160556;-64
2021/05/11 01:53:43;;;;;;;2.83;2.33;;;;;;;19.77;51.99;100232.16;681796;28;107210;-64
2021/05/11 01:54:24;;;;;;;2.78;2.40;;;;;;;19.74;52.25;100229.88;684695;28;130418;-64
2021/05/11 01:55:04;;;;;;;2.33;2.20;;;;;;;19.72;52.19;100230.13;684522;28;131365;-64
2021/05/11 01:56:36;;;;;;;2.30;2.20;;;;;;;19.70;52.67;100231.44;677228;29;132133;-64
2021/05/11 01:57:35;;;;;;;2.92;2.20;;;;;;;19.69;52.61;100227.91;684676;28;124629;-64
2021/05/11 01:58:24;;;;;;;2.60;2.33;;;;;;;19.68;52.66;100230.88;684619;28;122521;-64
2021/05/11 02:11:18;;;;;;;2.80;2.60;;;;;;;19.70;52.32;100217.75;684033;28;160788;-64
2021/05/11 02:18:19;;;;;;;2.70;2.43;;;;;;;19.58;52.82;100213.19;687250;28;131089;-64
2021/05/11 02:22:48;;;;;;;4.35;2.67;;;;;;;19.52;52.98;100214.19;684073;28;136964;-63
2021/05/11 02:23:12;;;;;;;2.92;2.72;;;;;;;19.52;52.67;100230.63;687621;28;44388;-64
2021/05/11 02:23:33;;;;;;;2.72;2.53;;;;;;;19.50;52.87;100226.47;686589;28;53313;-64
2021/05/11 02:23:54;;;;;;;2.70;2.50;;;;;;;19.50;53.03;100227.31;688619;28;21178;-65
2021/05/11 02:24:15;;;;;;;3.10;2.88;;;;;;;19.50;53.26;100226.47;687700;28;45294;-64
2021/05/11 02:24:36;;;;;;;3.50;2.83;;;;;;;19.49;52.87;100233.06;688118;28;22274;-64
2021/05/11 02:24:58;;;;;;;2.85;2.50;;;;;;;19.50;53.09;100231.94;688541;28;22473;-64
2021/05/11 02:25:20;;;;;;;2.92;2.63;;;;;;;19.50;52.99;100227.31;687977;28;21358;-64
2021/05/11 02:25:41;;;;;;;3.67;2.63;;;;;;;19.49;52.96;100228.38;686411;28;69357;-64
2021/05/11 02:26:03;;;;;;;2.88;2.67;;;;;;;19.48;53.04;100228.63;687915;28;24284;-64
2021/05/11 02:26:24;;;;;;;3.28;2.60;;;;;;;19.47;52.98;100230.56;687959;28;34919;-64
2021/05/11 02:26:45;;;;;;;3.45;2.90;;;;;;;19.45;53.22;100230.81;688887;28;6833;-63
2021/05/11 02:27:07;;;;;;;2.67;2.40;;;;;;;19.45;53.06;100224.47;688102;28;21086;-64
2021/05/11 02:27:28;;;;;;;2.55;2.40;;;;;;;19.47;52.86;100221.50;690543;28;22743;-65
2021/05/11 02:27:49;;;;;;;2.75;2.53;;;;;;;19.43;53.27;100216.50;690968;28;22384;-64
2021/05/11 02:28:10;;;;;;;3.35;2.70;;;;;;;19.46;52.82;100226.16;690966;28;18784;-65
2021/05/11 02:28:31;;;;;;;3.53;2.83;;;;;;;19.45;53.09;100229.94;689769;28;5914;-64
2021/05/11 02:28:52;;;;;;;4.82;2.58;;;;;;;19.45;53.16;100221.75;688530;28;39975;-65
2021/05/11 02:29:13;;;;;;;2.80;2.50;;;;;;;19.45;53.08;100213.53;690351;28;1776;-64
2021/05/11 02:29:34;;;;;;;2.78;2.60;;;;;;;19.44;53.08;100223.66;688671;28;23737;-64